createdAt,value
2023-02-23T00:03:18.497Z,23.40
2023-02-23T00:13:21.757Z,26.80
2023-02-23T00:23:27.496Z,27.70
2023-02-23T00:33:32.656Z,25.90
2023-02-23T00:43:37.677Z,25.10
2023-02-23T00:53:42.370Z,22.00
2023-02-23T01:03:46.103Z,23.40
2023-02-23T01:13:52.113Z,21.80
2023-02-23T01:23:56.255Z,21.80
2023-02-23T01:34:01.535Z,21.60
2023-02-23T01:44:28.240Z,24.80
2023-02-23T01:54:41.884Z,21.90
2023-02-23T02:04:45.362Z,21.80
2023-02-23T02:14:49.061Z,21.70
2023-02-23T02:25:23.336Z,20.90
2023-02-23T02:35:44.525Z,19.10
2023-02-23T02:46:14.029Z,19.10
2023-02-23T02:56:20.128Z,15.40
2023-02-23T03:06:56.378Z,17.30
2023-02-23T03:17:32.746Z,16.50
2023-02-23T03:28:00.653Z,17.00
2023-02-23T03:38:36.006Z,16.10
2023-02-23T03:48:59.563Z,15.70
2023-02-23T03:59:25.686Z,14.90
2023-02-23T04:09:48.783Z,15.90
2023-02-23T04:19:54.250Z,16.20
2023-02-23T04:29:57.497Z,14.70
2023-02-23T04:40:00.608Z,15.00
2023-02-23T04:50:04.352Z,12.80
2023-02-23T05:00:09.945Z,14.90
2023-02-23T05:10:13.813Z,15.40
2023-02-23T05:20:17.110Z,15.30
2023-02-23T05:30:20.616Z,15.00
2023-02-23T05:40:23.780Z,14.10
2023-02-23T05:50:27.098Z,14.00
2023-02-23T06:00:30.295Z,16.20
2023-02-23T06:10:33.389Z,13.10
2023-02-23T06:20:40.226Z,15.50
2023-02-23T06:30:44.431Z,16.80
2023-02-23T06:40:47.687Z,19.40
2023-02-23T06:50:51.882Z,18.60
2023-02-23T07:01:13.316Z,24.30
2023-02-23T07:11:19.892Z,32.40
2023-02-23T07:21:23.448Z,30.80
2023-02-23T07:31:26.854Z,37.50
2023-02-23T07:41:31.116Z,28.80
2023-02-23T07:51:34.338Z,24.60
2023-02-23T08:01:37.600Z,23.20
2023-02-23T08:11:40.834Z,22.70
2023-02-23T08:21:44.267Z,23.70
2023-02-23T08:31:47.803Z,25.90
2023-02-23T08:41:51.983Z,24.40
2023-02-23T08:51:55.284Z,20.90
2023-02-23T09:01:58.764Z,17.50
2023-02-23T09:12:02.351Z,18.80
2023-02-23T09:22:05.740Z,19.80
2023-02-23T09:32:11.359Z,23.00
2023-02-23T09:42:38.286Z,18.40
2023-02-23T09:52:47.741Z,17.40
2023-02-23T10:03:11.848Z,18.00
2023-02-23T10:13:55.844Z,19.70
2023-02-23T10:24:53.379Z,24.10
2023-02-23T10:34:57.057Z,25.80
2023-02-23T10:45:00.744Z,22.80
2023-02-23T10:55:08.510Z,20.40
2023-02-23T11:06:05.764Z,20.50
2023-02-23T11:16:15.136Z,20.30
2023-02-23T11:26:25.072Z,18.70
2023-02-23T11:36:31.295Z,16.30
2023-02-23T11:46:40.072Z,14.40
2023-02-23T11:56:53.205Z,11.90
2023-02-23T12:07:19.807Z,11.90
2023-02-23T12:17:33.240Z,10.70
2023-02-23T12:27:45.346Z,8.60
2023-02-23T12:38:00.673Z,8.30
2023-02-23T12:48:24.097Z,7.70
2023-02-23T12:59:06.937Z,7.90
2023-02-23T13:21:49.894Z,8.70
2023-02-23T13:31:54.334Z,10.10
2023-02-23T13:42:16.129Z,8.50
2023-02-23T13:52:43.308Z,8.10
2023-02-23T14:02:47.281Z,8.20
2023-02-23T14:13:14.153Z,17.90
2023-02-23T14:23:32.602Z,8.50
2023-02-23T14:33:45.571Z,6.30
2023-02-23T14:44:05.317Z,8.10
2023-02-23T14:54:15.851Z,8.00
2023-02-23T23:09:44.378Z,19.00
2023-02-23T23:19:49.397Z,17.50
2023-02-23T23:29:52.663Z,15.20
2023-02-23T23:40:05.627Z,16.10
2023-02-23T23:50:11.825Z,15.40
